Terminal Aerodrome Forecast
Issued by NWS Cleveland, OH

Home | Current Version | Previous Version | Graphics & Text | Print | Product List | Glossary On
Versions: 1 2 3 4 5 6 7 8 9 10 11 12 13 14 15 16 17 18
000
FTUS41 KCLE 251700
TAFMFD
TAF
KMFD 251739Z 2518/2618 23015G25KT P6SM OVC025
     FM252000 24012KT P6SM OVC018
     FM260300 27006KT P6SM SCT015 BKN250
     FM260600 VRB03KT P6SM OVC250
     FM261400 06003KT P6SM SCT250=

USA.gov is the U.S. government's official web portal to all federal, state and local government web resources and services.